Kezdőlap
METAR-TAF:

METAR-TAF

Repülőterek :

Kota Kinabalu, Malajzia

földrajzi szélesség: 05-56N, földrajzi hosszúság: 116-03E, magasság: 3 m

Jelenlegi meteorológiai megfigyelések

A jelentés 33 perccel ezelõtt készült, 17:00 UTC
Szélcsend
Hőmérséklet 27°C
Páratartalom 100%
Légköri nyomás 1008 hPa
Látótávolság 10 km, vagy több
Kevés felhő 1300 lábon
Kevés felhő 1600 lábon, Cumulonimbus.
enyhe esõ,

METAR: WBKK 201700Z 00000KT 9999 -RA FEW013 FEW016CB 27/27 Q1008 NOSIG

Idő: 01:33 (17:33 UTC)

Előrejelzés

A jelentés 6 órával és 33 perccel ezelõtt készült, 11:00 UTC
Az előrejelzés 20-én 12 óra UTC és 21-én 12 óra UTC között érvényes
Kelet-délkeleti szél 6 kt
Látótávolság 10 km, vagy több
Kevés felhő 1400 lábon
21-én 01 óra UTC és 21-én 03 óra UTC között fokozatosan kialakuló
Nyugat-északnyugati szél 6 kt

TAF: WBKK 201100Z 2012/2112 12006KT 9999 FEW014 BECMG 2101/2103 30006KT

Meteorológiai megfigyelések és előrejelzések több, mint 4000 repülőtéren (METAR és TAF jelentéseket).

A térképen piros és sárga pontok jelzik az elérhető meteorológiai állomásokat.

Mozgassa az egeret a pont fölött, hogy megjelenjen az állomás neve.

Azután kattintson az időjárási megfigyelések és előrejelzések megtekintéséhez.

A térkép megváltoztatása: kattintson a fekete keresztel jelölt zöld gombra ráközelítéshez, a vonallal jelölt zöld gombra távolításhoz, vagy a zöld nyilakra a szomszédos térképek eléréséhez.


METAR-TAF: